createdAt,value
2023-06-25T00:01:18.603Z,52.29
2023-06-25T00:03:45.872Z,52.27
2023-06-25T00:06:12.660Z,52.57
2023-06-25T00:08:39.386Z,52.35
2023-06-25T00:11:06.108Z,52.36
2023-06-25T00:13:32.737Z,52.08
2023-06-25T00:15:59.596Z,52.37
2023-06-25T00:18:26.245Z,52.34
2023-06-25T00:20:52.924Z,52.36
2023-06-25T00:23:20.761Z,52.25
2023-06-25T00:25:47.688Z,52.71
2023-06-25T00:28:14.372Z,52.90
2023-06-25T00:30:41.170Z,53.26
2023-06-25T00:33:08.699Z,53.11
2023-06-25T00:35:50.826Z,53.10
2023-06-25T00:38:18.429Z,52.95
2023-06-25T00:40:45.279Z,53.04
2023-06-25T00:43:11.972Z,52.73
2023-06-25T00:45:39.917Z,52.95
2023-06-25T00:48:06.774Z,52.94
2023-06-25T00:50:33.547Z,52.67
2023-06-25T00:53:01.986Z,52.81
2023-06-25T00:55:29.341Z,52.86
2023-06-25T00:57:56.096Z,52.69
2023-06-25T01:00:23.635Z,52.88
2023-06-25T01:06:12.177Z,52.99
2023-06-25T01:08:40.496Z,52.91
2023-06-25T01:11:07.550Z,53.03
2023-06-25T01:13:34.248Z,53.15
2023-06-25T01:16:00.983Z,53.08
2023-06-25T01:18:27.920Z,53.15
2023-06-25T01:20:55.951Z,53.37
2023-06-25T01:23:22.643Z,52.66
2023-06-25T01:25:50.119Z,53.49
2023-06-25T01:28:17.369Z,53.67
2023-06-25T01:30:44.278Z,53.78
2023-06-25T01:33:10.892Z,54.00
2023-06-25T01:35:37.844Z,53.97
2023-06-25T01:38:04.807Z,54.08
2023-06-25T01:40:31.422Z,53.96
2023-06-25T01:42:58.124Z,54.09
2023-06-25T01:45:24.907Z,54.17
2023-06-25T01:47:51.790Z,54.35
2023-06-25T01:50:18.522Z,54.85
2023-06-25T01:52:45.326Z,55.03
2023-06-25T01:55:11.988Z,54.84
2023-06-25T01:57:38.622Z,54.93
2023-06-25T02:00:06.352Z,55.03
2023-06-25T02:02:42.919Z,55.23
2023-06-25T02:05:09.719Z,55.17
2023-06-25T02:07:36.454Z,55.27
2023-06-25T02:10:03.962Z,55.45
2023-06-25T02:12:30.565Z,55.46
2023-06-25T02:15:28.471Z,55.84
2023-06-25T02:17:58.246Z,55.32
2023-06-25T02:20:25.026Z,55.20
2023-06-25T02:22:51.631Z,55.38
2023-06-25T02:25:18.369Z,55.25
2023-06-25T02:27:45.062Z,55.22
2023-06-25T02:30:12.330Z,55.12
2023-06-25T02:32:39.114Z,55.17
2023-06-25T02:35:06.038Z,54.92
2023-06-25T02:37:32.661Z,55.00
2023-06-25T02:39:59.315Z,55.24
2023-06-25T02:42:26.042Z,54.99
2023-06-25T02:44:52.722Z,55.14
2023-06-25T02:47:19.591Z,55.30
2023-06-25T02:49:46.209Z,55.05
2023-06-25T02:52:12.962Z,55.20
2023-06-25T02:54:39.825Z,55.21
2023-06-25T02:57:06.429Z,55.39
2023-06-25T02:59:33.140Z,55.58
2023-06-25T03:01:59.927Z,55.73
2023-06-25T03:04:26.617Z,55.86
2023-06-25T03:06:53.316Z,55.75
2023-06-25T03:09:20.252Z,55.73
2023-06-25T03:11:46.898Z,56.05
2023-06-25T03:14:29.361Z,56.11
2023-06-25T03:17:01.384Z,56.02
2023-06-25T03:19:28.005Z,55.87
2023-06-25T03:21:54.645Z,56.20
2023-06-25T03:24:21.492Z,56.17
2023-06-25T03:26:50.659Z,56.27
2023-06-25T03:29:18.226Z,56.26
2023-06-25T03:31:45.249Z,56.71
2023-06-25T03:34:15.026Z,56.56
2023-06-25T03:36:41.807Z,56.65
2023-06-25T03:39:09.396Z,56.73
2023-06-25T03:41:36.323Z,56.62
2023-06-25T03:44:04.470Z,55.84
2023-06-25T03:46:32.423Z,55.74
2023-06-25T03:49:00.208Z,56.16
2023-06-25T03:51:27.878Z,56.46
2023-06-25T03:53:56.706Z,56.88
2023-06-25T03:56:23.518Z,57.02
2023-06-25T03:58:50.329Z,57.09
2023-06-25T04:01:17.326Z,57.23
2023-06-25T04:03:44.078Z,57.56
2023-06-25T04:06:10.882Z,57.53
2023-06-25T04:08:40.923Z,57.34
2023-06-25T04:11:08.306Z,57.44
2023-06-25T04:13:35.648Z,57.33
2023-06-25T04:16:02.406Z,57.78
2023-06-25T04:18:29.748Z,58.53
2023-06-25T04:20:57.003Z,59.17
2023-06-25T04:23:24.236Z,59.66
2023-06-25T04:25:51.317Z,60.14
2023-06-25T04:28:18.906Z,60.16
2023-06-25T04:30:45.755Z,60.00
2023-06-25T04:33:13.414Z,59.54
2023-06-25T04:35:42.824Z,59.08
2023-06-25T04:38:09.484Z,58.44
2023-06-25T04:40:36.309Z,57.97
2023-06-25T04:43:03.229Z,57.36
2023-06-25T04:45:30.037Z,56.77
2023-06-25T04:47:56.703Z,56.50
2023-06-25T04:50:23.485Z,55.88
2023-06-25T04:52:50.497Z,55.10
2023-06-25T04:55:17.266Z,54.04
2023-06-25T04:57:43.908Z,53.32
2023-06-25T05:00:11.263Z,52.52
2023-06-25T05:02:38.028Z,52.03
2023-06-25T05:05:05.054Z,51.38
2023-06-25T05:07:32.058Z,51.48
2023-06-25T05:09:58.697Z,51.34
2023-06-25T05:12:25.395Z,51.26
2023-06-25T05:14:51.997Z,51.26
2023-06-25T05:17:18.632Z,51.36
2023-06-25T05:19:45.906Z,50.58
2023-06-25T05:22:12.584Z,50.88
2023-06-25T05:24:39.191Z,51.17
2023-06-25T05:27:06.394Z,51.44
2023-06-25T05:29:33.119Z,51.36
2023-06-25T05:31:59.735Z,51.20
2023-06-25T05:34:26.411Z,51.45
2023-06-25T05:36:53.057Z,51.59
2023-06-25T05:39:19.699Z,52.04
2023-06-25T05:41:46.344Z,51.77
2023-06-25T05:44:13.995Z,51.99
2023-06-25T05:46:40.679Z,52.01
2023-06-25T05:49:07.388Z,51.54
2023-06-25T05:51:34.043Z,50.80
2023-06-25T05:54:00.701Z,51.25
2023-06-25T05:56:27.585Z,51.42
2023-06-25T05:58:54.337Z,51.35
2023-06-25T06:01:21.004Z,51.10
2023-06-25T06:03:47.707Z,50.56
2023-06-25T06:06:14.576Z,50.35
2023-06-25T06:08:41.181Z,50.33
2023-06-25T06:11:07.828Z,49.52
2023-06-25T06:13:34.467Z,48.26
2023-06-25T06:16:01.359Z,48.08
2023-06-25T06:18:27.993Z,47.38
2023-06-25T06:20:54.785Z,47.27
2023-06-25T06:23:21.486Z,48.30
2023-06-25T06:25:48.108Z,48.83
2023-06-25T06:28:14.948Z,48.68
2023-06-25T06:30:41.609Z,49.17
2023-06-25T06:33:08.443Z,48.63
2023-06-25T06:35:36.077Z,49.04
2023-06-25T06:38:02.911Z,49.04
2023-06-25T06:40:29.568Z,49.29
2023-06-25T06:42:56.185Z,49.13
2023-06-25T06:45:22.895Z,49.17
2023-06-25T06:47:49.561Z,48.35
2023-06-25T06:50:16.192Z,48.51
2023-06-25T06:52:43.611Z,48.25
2023-06-25T06:55:10.633Z,47.58
2023-06-25T06:57:37.785Z,48.01
2023-06-25T07:00:05.612Z,48.39
2023-06-25T07:02:32.308Z,48.76
2023-06-25T07:05:02.345Z,47.93
2023-06-25T07:07:29.171Z,48.11
2023-06-25T07:09:55.872Z,47.36
2023-06-25T07:12:22.859Z,48.09
2023-06-25T07:14:49.518Z,48.47
2023-06-25T07:17:16.377Z,48.30
2023-06-25T07:19:43.127Z,48.55
2023-06-25T07:22:09.860Z,47.52
2023-06-25T07:24:36.468Z,47.03
2023-06-25T07:27:03.420Z,47.54
2023-06-25T07:29:30.120Z,46.00
2023-06-25T07:31:56.759Z,45.37
2023-06-25T07:34:25.834Z,44.18
2023-06-25T07:36:52.524Z,44.79
2023-06-25T07:39:26.842Z,43.24
2023-06-25T07:41:54.183Z,43.82
2023-06-25T07:44:41.723Z,44.77
2023-06-25T07:47:07.597Z,44.52
2023-06-25T07:49:34.400Z,43.24
2023-06-25T07:52:01.002Z,42.98
2023-06-25T07:54:27.665Z,43.32
2023-06-25T07:56:54.294Z,43.69
2023-06-25T07:59:20.914Z,43.53
2023-06-25T08:01:47.527Z,43.03
2023-06-25T08:04:14.382Z,43.59
2023-06-25T08:06:41.464Z,42.92
2023-06-25T08:09:08.215Z,42.33
2023-06-25T08:11:34.886Z,42.30
2023-06-25T08:14:01.581Z,41.64
2023-06-25T08:16:30.362Z,41.60
2023-06-25T08:18:57.053Z,42.23
2023-06-25T08:21:24.281Z,42.41
2023-06-25T08:23:50.936Z,41.20
2023-06-25T08:26:17.543Z,40.25
2023-06-25T08:28:44.444Z,40.59
2023-06-25T08:31:11.687Z,40.51
2023-06-25T08:33:39.830Z,40.27
2023-06-25T08:36:06.781Z,41.03
2023-06-25T08:38:33.593Z,40.68
2023-06-25T08:41:00.680Z,40.46
2023-06-25T08:43:27.422Z,40.95
2023-06-25T08:45:54.203Z,40.88
2023-06-25T08:48:22.975Z,38.63
2023-06-25T08:50:55.037Z,39.00
2023-06-25T08:53:21.834Z,38.95
2023-06-25T08:55:49.987Z,38.63
2023-06-25T08:58:16.602Z,39.29
2023-06-25T09:00:43.274Z,39.01
2023-06-25T09:03:10.020Z,38.89
2023-06-25T09:05:37.057Z,37.85
2023-06-25T09:08:04.214Z,38.12
2023-06-25T09:10:30.830Z,38.24
2023-06-25T09:12:57.525Z,38.10
2023-06-25T09:15:24.837Z,38.43
2023-06-25T09:17:55.832Z,36.97
2023-06-25T09:20:23.849Z,37.89
2023-06-25T09:22:54.947Z,38.46
2023-06-25T09:25:28.023Z,38.66
2023-06-25T09:27:55.396Z,39.05
2023-06-25T09:30:25.009Z,37.76
2023-06-25T09:32:56.225Z,36.16
2023-06-25T09:35:24.357Z,36.52
2023-06-25T09:37:51.929Z,36.66
2023-06-25T09:40:19.478Z,35.66
2023-06-25T09:42:48.957Z,36.35
2023-06-25T09:45:16.703Z,34.05
2023-06-25T09:47:46.482Z,34.89
2023-06-25T09:50:36.007Z,36.18
2023-06-25T09:53:12.980Z,34.00
2023-06-25T09:55:40.347Z,32.78
2023-06-25T09:58:07.494Z,33.73
2023-06-25T10:00:34.904Z,34.51
2023-06-25T10:03:04.324Z,34.76
2023-06-25T10:05:32.826Z,34.25
2023-06-25T10:07:59.730Z,35.05
2023-06-25T10:10:29.563Z,33.75
2023-06-25T10:12:56.648Z,34.02
2023-06-25T10:15:37.174Z,33.68
2023-06-25T10:18:06.659Z,33.88
2023-06-25T10:20:36.202Z,33.21
2023-06-25T10:23:27.238Z,33.75
2023-06-25T10:25:59.969Z,30.84
2023-06-25T10:28:35.873Z,31.57
2023-06-25T10:31:23.048Z,32.92
2023-06-25T10:33:49.943Z,31.29
2023-06-25T10:36:16.705Z,30.44
2023-06-25T10:38:43.400Z,30.89
2023-06-25T10:41:10.328Z,30.54
2023-06-25T10:43:38.002Z,30.47
2023-06-25T10:46:04.902Z,29.53
2023-06-25T10:48:31.567Z,29.45
2023-06-25T10:50:58.656Z,29.58
2023-06-25T10:53:25.541Z,28.71
2023-06-25T10:55:53.728Z,28.18
2023-06-25T10:58:25.313Z,28.48
2023-06-25T11:00:57.449Z,29.61
2023-06-25T11:03:25.438Z,31.08
2023-06-25T11:05:52.608Z,31.23
2023-06-25T11:08:19.374Z,31.11
2023-06-25T11:10:46.316Z,31.89
2023-06-25T11:13:13.875Z,30.49
2023-06-25T11:15:41.233Z,30.24
2023-06-25T11:18:11.738Z,27.87
2023-06-25T11:20:43.804Z,26.46
2023-06-25T11:23:10.832Z,27.36
2023-06-25T11:25:38.126Z,28.66
2023-06-25T11:28:06.993Z,28.19
2023-06-25T11:30:33.738Z,28.55
2023-06-25T11:33:10.860Z,27.95
2023-06-25T11:35:38.111Z,29.47
2023-06-25T11:38:05.418Z,29.08
2023-06-25T11:40:34.270Z,27.79
2023-06-25T11:43:01.333Z,27.12
2023-06-25T11:45:39.210Z,27.44
2023-06-25T11:48:13.261Z,26.93
2023-06-25T11:50:40.031Z,27.64
2023-06-25T11:53:06.776Z,28.17
2023-06-25T11:55:33.523Z,28.43
2023-06-25T11:58:00.219Z,26.53
2023-06-25T12:00:26.998Z,27.39
2023-06-25T12:02:53.810Z,25.91
2023-06-25T12:05:20.558Z,26.35
2023-06-25T12:07:47.160Z,27.26
2023-06-25T12:10:13.800Z,27.57
2023-06-25T12:12:40.537Z,27.68
2023-06-25T12:15:07.391Z,27.88
2023-06-25T12:17:34.054Z,26.37
2023-06-25T12:20:00.687Z,25.98
2023-06-25T12:22:27.313Z,27.49
2023-06-25T12:24:54.064Z,23.93
2023-06-25T12:27:20.687Z,23.93
2023-06-25T12:29:47.519Z,25.33
2023-06-25T12:32:14.243Z,24.45
2023-06-25T12:34:40.862Z,24.67
2023-06-25T12:37:07.605Z,24.68
2023-06-25T12:39:34.217Z,25.50
2023-06-25T12:42:00.889Z,25.40
2023-06-25T12:44:27.568Z,24.84
2023-06-25T12:46:54.243Z,23.49
2023-06-25T12:49:20.935Z,22.54
2023-06-25T12:51:49.230Z,23.42
2023-06-25T12:54:17.242Z,22.98
2023-06-25T12:56:43.910Z,21.19
2023-06-25T12:59:10.554Z,22.98
2023-06-25T13:01:37.453Z,24.29
2023-06-25T13:04:04.507Z,24.82
2023-06-25T13:06:31.272Z,25.26
2023-06-25T13:08:57.904Z,25.43
2023-06-25T13:11:24.508Z,23.65
2023-06-25T13:13:51.332Z,22.97
2023-06-25T13:16:18.076Z,24.02
2023-06-25T13:18:44.789Z,22.57
2023-06-25T13:21:11.525Z,23.30
2023-06-25T13:23:38.298Z,23.99
2023-06-25T13:26:05.316Z,24.04
2023-06-25T13:28:31.967Z,24.09
2023-06-25T13:30:58.795Z,24.55
2023-06-25T13:33:25.921Z,24.64
2023-06-25T13:35:53.546Z,25.42
2023-06-25T13:38:20.215Z,25.15
2023-06-25T13:40:46.882Z,24.80
2023-06-25T13:43:13.550Z,24.01
2023-06-25T13:45:40.527Z,24.62
2023-06-25T13:48:07.207Z,24.47
2023-06-25T13:50:33.960Z,24.50
2023-06-25T13:53:00.586Z,24.26
2023-06-25T13:55:27.249Z,24.49
2023-06-25T13:57:54.053Z,24.13
2023-06-25T14:00:20.749Z,21.37
2023-06-25T14:03:02.624Z,22.50
2023-06-25T14:05:34.377Z,23.13
2023-06-25T14:08:01.156Z,20.61
2023-06-25T14:10:27.813Z,22.00
2023-06-25T14:12:54.440Z,22.23
2023-06-25T14:15:21.091Z,22.26
2023-06-25T14:17:48.127Z,23.18
2023-06-25T14:20:15.283Z,23.61
2023-06-25T14:22:42.262Z,24.44
2023-06-25T14:25:08.988Z,23.88
2023-06-25T14:27:35.639Z,22.03
2023-06-25T14:30:02.462Z,22.26
2023-06-25T14:32:29.205Z,22.47
2023-06-25T14:34:56.101Z,21.77
2023-06-25T14:37:22.814Z,21.73
2023-06-25T14:39:49.746Z,22.65
2023-06-25T14:42:16.396Z,21.44
2023-06-25T14:44:43.033Z,20.80
2023-06-25T14:47:11.224Z,21.19
2023-06-25T14:49:37.854Z,21.05
2023-06-25T14:52:04.922Z,20.32
2023-06-25T14:54:31.622Z,20.78
2023-06-25T14:56:58.334Z,19.21
2023-06-25T14:59:25.229Z,19.63
2023-06-25T15:01:51.931Z,18.01
2023-06-25T15:04:18.808Z,17.76
2023-06-25T15:06:46.088Z,17.13
2023-06-25T15:09:13.745Z,18.93
2023-06-25T15:11:40.832Z,17.11
2023-06-25T15:14:07.470Z,18.86
2023-06-25T15:16:34.158Z,19.51
2023-06-25T15:19:00.942Z,19.72
2023-06-25T15:21:27.624Z,18.67
2023-06-25T15:23:54.245Z,18.22
2023-06-25T15:26:20.993Z,17.22
2023-06-25T15:28:47.815Z,17.76
2023-06-25T15:31:14.676Z,18.74
2023-06-25T15:33:44.223Z,18.68
2023-06-25T15:36:10.952Z,19.95
2023-06-25T15:38:37.690Z,20.24
2023-06-25T15:41:04.336Z,19.89
2023-06-25T15:43:30.951Z,18.61
2023-06-25T15:45:58.074Z,18.88
2023-06-25T15:48:24.926Z,17.85
2023-06-25T15:50:51.637Z,18.38
2023-06-25T15:53:18.254Z,18.31
2023-06-25T15:55:45.212Z,18.65
2023-06-25T15:58:12.454Z,17.18
2023-06-25T16:00:39.407Z,17.02
2023-06-25T16:03:07.399Z,19.10
2023-06-25T16:05:34.386Z,17.42
2023-06-25T16:08:01.283Z,17.34
2023-06-25T16:10:27.956Z,17.24
2023-06-25T16:12:54.763Z,17.31
2023-06-25T16:15:21.441Z,17.66
2023-06-25T16:17:48.241Z,17.78
2023-06-25T16:20:14.950Z,18.12
2023-06-25T16:22:41.629Z,17.34
2023-06-25T16:25:08.612Z,17.34
2023-06-25T16:27:35.361Z,17.11
2023-06-25T16:30:02.060Z,17.33
2023-06-25T16:32:28.857Z,17.38
2023-06-25T16:34:55.605Z,16.01
2023-06-25T16:37:22.262Z,16.74
2023-06-25T16:39:48.948Z,17.37
2023-06-25T16:42:15.587Z,16.88
2023-06-25T16:44:42.283Z,16.44
2023-06-25T16:47:08.928Z,16.95
2023-06-25T16:49:36.359Z,16.95
2023-06-25T16:52:03.883Z,16.73
2023-06-25T16:54:30.513Z,16.56
2023-06-25T16:56:57.271Z,15.85
2023-06-25T16:59:23.948Z,14.78
2023-06-25T17:01:50.588Z,14.23
2023-06-25T17:04:17.303Z,15.41
2023-06-25T17:06:44.115Z,15.23
2023-06-25T17:09:11.020Z,15.35
2023-06-25T17:11:37.667Z,14.90
2023-06-25T17:14:04.454Z,15.49
2023-06-25T17:16:31.124Z,16.08
2023-06-25T17:18:58.021Z,15.51
2023-06-25T17:21:24.677Z,15.07
2023-06-25T17:23:51.331Z,14.98
2023-06-25T17:26:17.984Z,14.88
2023-06-25T17:28:44.651Z,15.47
2023-06-25T17:31:11.388Z,15.96
2023-06-25T17:33:38.103Z,16.07
2023-06-25T17:36:05.059Z,16.85
2023-06-25T17:38:31.687Z,17.32
2023-06-25T17:40:58.451Z,17.95
2023-06-25T17:43:25.124Z,18.08
2023-06-25T17:45:52.078Z,17.61
2023-06-25T17:48:18.877Z,16.33
2023-06-25T17:50:45.724Z,17.06
2023-06-25T17:53:12.719Z,17.79
2023-06-25T17:55:39.641Z,17.19
2023-06-25T17:58:06.592Z,16.58
2023-06-25T18:00:33.240Z,16.35
2023-06-25T18:02:59.924Z,16.85
2023-06-25T18:05:26.807Z,17.23
2023-06-25T18:07:53.452Z,18.07
2023-06-25T18:10:20.554Z,17.89
2023-06-25T18:12:47.166Z,18.11
2023-06-25T18:15:13.912Z,18.64
2023-06-25T18:17:41.525Z,18.98
2023-06-25T18:20:10.191Z,19.18
2023-06-25T18:22:38.334Z,19.70
2023-06-25T18:25:05.229Z,20.35
2023-06-25T18:27:33.408Z,20.73
2023-06-25T18:30:00.130Z,21.29
2023-06-25T18:32:26.984Z,21.81
2023-06-25T18:34:53.809Z,21.99
2023-06-25T18:37:20.420Z,22.82
2023-06-25T18:39:47.194Z,23.54
2023-06-25T18:42:13.821Z,24.09
2023-06-25T18:44:40.725Z,24.91
2023-06-25T18:47:07.668Z,24.96
2023-06-25T18:49:34.287Z,25.58
2023-06-25T18:52:00.969Z,25.45
2023-06-25T18:54:27.586Z,26.00
2023-06-25T18:56:54.317Z,25.82
2023-06-25T18:59:21.075Z,26.40
2023-06-25T19:01:47.772Z,26.27
2023-06-25T19:04:14.554Z,27.04
2023-06-25T19:06:41.505Z,26.99
2023-06-25T19:09:08.220Z,27.28
2023-06-25T19:11:34.965Z,27.47
2023-06-25T19:14:02.655Z,27.92
2023-06-25T19:16:29.331Z,28.19
2023-06-25T19:18:55.996Z,28.35
2023-06-25T19:21:22.627Z,28.54
2023-06-25T19:23:49.246Z,28.66
2023-06-25T19:26:15.949Z,29.14
2023-06-25T19:28:42.616Z,29.02
2023-06-25T19:31:09.475Z,29.45
2023-06-25T19:33:36.319Z,29.69
2023-06-25T19:36:03.038Z,30.16
2023-06-25T19:38:30.746Z,30.08
2023-06-25T19:40:58.494Z,30.09
2023-06-25T19:43:25.229Z,30.48
2023-06-25T19:45:51.873Z,30.93
2023-06-25T19:48:18.664Z,31.38
2023-06-25T19:50:45.459Z,31.45
2023-06-25T19:53:12.117Z,31.56
2023-06-25T19:55:38.866Z,32.13
2023-06-25T19:58:05.682Z,32.38
2023-06-25T20:00:32.319Z,32.48
2023-06-25T20:02:59.106Z,32.88
2023-06-25T20:05:25.948Z,32.68
2023-06-25T20:07:52.593Z,32.93
2023-06-25T20:10:19.375Z,32.93
2023-06-25T20:12:47.829Z,33.27
2023-06-25T20:15:15.402Z,33.46
2023-06-25T20:17:42.092Z,33.99
2023-06-25T20:20:09.105Z,33.75
2023-06-25T20:22:35.847Z,33.57
2023-06-25T20:25:02.482Z,33.75
2023-06-25T20:27:29.116Z,33.87
2023-06-25T20:29:56.198Z,33.97
2023-06-25T20:32:23.834Z,34.01
2023-06-25T20:34:50.628Z,33.84
2023-06-25T20:37:17.293Z,33.83
2023-06-25T20:39:44.021Z,33.98
2023-06-25T20:42:10.772Z,34.40
2023-06-25T20:44:38.409Z,34.76
2023-06-25T20:47:05.272Z,34.37
2023-06-25T20:49:31.925Z,34.83
2023-06-25T20:51:59.834Z,34.54
2023-06-25T20:54:27.701Z,34.89
2023-06-25T20:56:55.404Z,35.07
2023-06-25T20:59:22.344Z,35.08
2023-06-25T21:01:59.851Z,34.86
2023-06-25T21:06:53.502Z,35.24
2023-06-25T21:09:20.224Z,35.63
2023-06-25T21:11:47.027Z,35.60
2023-06-25T21:14:13.784Z,35.69
2023-06-25T21:16:40.539Z,36.34
2023-06-25T21:19:07.294Z,36.40
2023-06-25T21:21:33.903Z,36.56
2023-06-25T21:24:00.722Z,36.68
2023-06-25T21:26:27.656Z,36.96
2023-06-25T21:28:54.457Z,36.94
2023-06-25T21:31:21.195Z,37.13
2023-06-25T21:33:47.895Z,37.56
2023-06-25T21:36:14.612Z,37.51
2023-06-25T21:38:42.475Z,37.54
2023-06-25T21:41:10.006Z,37.98
2023-06-25T21:43:40.321Z,38.20
2023-06-25T21:46:12.764Z,38.45
2023-06-25T21:48:39.535Z,38.55
2023-06-25T21:51:06.146Z,38.79
2023-06-25T21:53:32.843Z,38.76
2023-06-25T21:55:59.452Z,39.06
2023-06-25T21:58:26.184Z,38.74
2023-06-25T22:00:52.851Z,38.93
2023-06-25T22:03:19.657Z,39.36
2023-06-25T22:05:46.370Z,39.40
2023-06-25T22:08:13.065Z,39.19
2023-06-25T22:10:40.089Z,39.83
2023-06-25T22:13:06.965Z,39.95
2023-06-25T22:15:33.949Z,40.28
2023-06-25T22:18:00.791Z,40.33
2023-06-25T22:20:27.636Z,40.47
2023-06-25T22:22:54.564Z,40.63
2023-06-25T22:25:21.302Z,40.61
2023-06-25T22:27:52.570Z,40.81
2023-06-25T22:30:20.280Z,41.10
2023-06-25T22:32:47.272Z,41.06
2023-06-25T22:35:14.279Z,41.20
2023-06-25T22:37:41.100Z,41.31
2023-06-25T22:40:08.311Z,41.80
2023-06-25T22:42:35.197Z,41.41
2023-06-25T22:45:02.486Z,41.86
2023-06-25T22:47:29.169Z,41.75
2023-06-25T22:49:55.894Z,42.01
2023-06-25T22:52:22.570Z,41.99
2023-06-25T22:54:49.188Z,42.52
2023-06-25T22:57:15.958Z,42.31
2023-06-25T22:59:42.557Z,42.63
2023-06-25T23:02:09.399Z,42.52
2023-06-25T23:04:36.181Z,42.86
2023-06-25T23:07:02.907Z,43.34
2023-06-25T23:09:29.834Z,43.20
2023-06-25T23:11:56.551Z,43.22
2023-06-25T23:14:23.476Z,43.22
2023-06-25T23:16:50.147Z,43.38
2023-06-25T23:19:16.840Z,43.53
2023-06-25T23:21:43.713Z,43.55
2023-06-25T23:24:10.584Z,43.47
2023-06-25T23:26:37.195Z,43.83
2023-06-25T23:29:03.906Z,43.89
2023-06-25T23:31:30.605Z,43.70
2023-06-25T23:33:57.320Z,44.04
2023-06-25T23:36:23.947Z,44.32
2023-06-25T23:38:50.786Z,44.41
2023-06-25T23:41:17.688Z,44.48
2023-06-25T23:43:44.301Z,44.56
2023-06-25T23:46:10.977Z,44.73
2023-06-25T23:48:37.743Z,44.65
2023-06-25T23:51:04.363Z,44.57
2023-06-25T23:53:31.087Z,44.80
2023-06-25T23:55:57.990Z,44.62
2023-06-25T23:58:24.626Z,44.82
